createdAt,value
2023-03-22T00:01:56.977Z,9.6
2023-03-22T00:05:59.798Z,9.8
2023-03-22T00:07:59.488Z,9.8
2023-03-22T00:11:58.844Z,9.7
2023-03-22T00:15:58.221Z,9.6
2023-03-22T00:18:01.329Z,9.6
2023-03-22T00:20:01.015Z,9.7
2023-03-22T00:22:00.689Z,9.7
2023-03-22T00:24:00.396Z,9.7
2023-03-22T00:26:00.101Z,9.7
2023-03-22T00:27:59.772Z,9.7
2023-03-22T00:29:59.490Z,9.7
2023-03-22T00:32:02.574Z,9.7
2023-03-22T00:34:02.261Z,9.7
2023-03-22T00:36:01.947Z,9.6
2023-03-22T00:40:01.330Z,9.7
2023-03-22T00:42:01.038Z,9.6
2023-03-22T00:44:00.743Z,9.5
2023-03-22T00:46:03.853Z,9.6
2023-03-22T00:48:03.592Z,9.6
2023-03-22T00:50:03.238Z,9.6
2023-03-22T00:51:04.784Z,9.6
2023-03-22T00:53:04.473Z,9.5
2023-03-22T00:55:04.159Z,9.5
2023-03-22T00:57:03.879Z,9.5
2023-03-22T01:03:06.375Z,9.3
2023-03-22T01:05:06.873Z,9.3
2023-03-22T01:07:06.581Z,9.3
2023-03-22T01:09:06.317Z,9.3
2023-03-22T01:11:05.998Z,9.4
2023-03-22T01:13:09.152Z,9.3
2023-03-22T01:23:07.591Z,9.4
2023-03-22T01:25:07.289Z,9.4
2023-03-22T01:33:09.459Z,9.5
2023-03-22T01:37:08.874Z,9.5
2023-03-22T01:39:08.508Z,9.5
2023-03-22T01:41:11.635Z,9.5
2023-03-22T01:46:12.638Z,9.6
2023-03-22T01:48:12.319Z,9.6
2023-03-22T01:50:11.889Z,9.5
2023-03-22T01:52:11.581Z,9.5
2023-03-22T01:54:14.635Z,9.4
2023-03-22T01:56:14.348Z,9.5
2023-03-22T01:58:14.041Z,9.4
2023-03-22T02:00:13.741Z,9.4
2023-03-22T02:02:13.465Z,9.4
2023-03-22T02:04:13.120Z,9.4
2023-03-22T02:06:12.830Z,9.4
2023-03-22T02:08:15.937Z,9.4
2023-03-22T02:10:15.622Z,9.4
2023-03-22T02:12:15.392Z,9.4
2023-03-22T02:14:15.009Z,9.4
2023-03-22T02:16:14.812Z,9.4
2023-03-22T02:18:14.425Z,9.3
2023-03-22T02:20:14.157Z,9.4
2023-03-22T02:22:17.204Z,9.4
2023-03-22T02:26:16.621Z,9.4
2023-03-22T02:28:16.281Z,9.4
2023-03-22T02:30:15.999Z,9.5
2023-03-22T02:32:15.691Z,9.5
2023-03-22T02:34:15.408Z,9.5
2023-03-22T02:36:18.509Z,9.6
2023-03-22T02:38:18.180Z,9.5
2023-03-22T02:40:17.929Z,9.6
2023-03-22T02:42:33.331Z,9.5
2023-03-22T02:44:33.030Z,9.5
2023-03-22T02:48:35.845Z,9.4
2023-03-22T02:50:35.515Z,9.4
2023-03-22T02:52:35.208Z,9.4
2023-03-22T02:54:34.861Z,9.3
2023-03-22T02:56:34.551Z,9.3
2023-03-22T02:58:34.256Z,9.3
2023-03-22T03:06:37.522Z,9.5
2023-03-22T03:08:36.164Z,9.5
2023-03-22T03:12:35.543Z,9.5
2023-03-22T03:14:35.257Z,9.5
2023-03-22T03:18:38.030Z,9.6
2023-03-22T03:20:38.302Z,9.6
2023-03-22T03:22:37.395Z,9.6
2023-03-22T03:32:39.264Z,9.4
2023-03-22T03:35:40.540Z,9.5
2023-03-22T03:37:40.157Z,9.6
2023-03-22T03:41:39.529Z,9.8
2023-03-22T03:43:42.625Z,10.1
2023-03-22T03:45:42.396Z,10.1
2023-03-22T03:49:41.681Z,10.1
2023-03-22T03:53:41.062Z,10.2
2023-03-22T03:55:40.738Z,10.2
2023-03-22T03:57:43.817Z,10.2
2023-03-22T03:59:43.488Z,10.2
2023-03-22T04:01:43.193Z,10.3
2023-03-22T04:03:42.860Z,10.3
2023-03-22T04:05:42.536Z,10.4
2023-03-22T04:11:44.970Z,10.4
2023-03-22T04:15:38.651Z,10.4
2023-03-22T04:17:38.323Z,10.3
2023-03-22T04:25:40.503Z,10.4
2023-03-22T04:30:41.753Z,10.2
2023-03-22T04:32:41.037Z,10.2
2023-03-22T04:34:40.737Z,10.2
2023-03-22T04:36:40.439Z,10.1
2023-03-22T04:38:45.061Z,10
2023-03-22T04:40:44.691Z,10
2023-03-22T04:42:44.382Z,10.1
2023-03-22T04:44:44.033Z,10.1
2023-03-22T04:46:43.752Z,10.1
2023-03-22T04:48:43.427Z,10.1
2023-03-22T04:50:43.066Z,10.1
2023-03-22T04:52:46.134Z,10.1
2023-03-22T04:54:45.831Z,10.1
2023-03-22T04:56:45.489Z,10.2
2023-03-22T04:58:45.150Z,10.2
2023-03-22T05:00:44.865Z,10.1
2023-03-22T05:02:44.581Z,10.1
2023-03-22T05:04:44.198Z,10
2023-03-22T05:10:46.581Z,10
2023-03-22T05:16:45.614Z,10
2023-03-22T05:18:45.287Z,10
2023-03-22T05:22:48.033Z,10
2023-03-22T05:24:47.716Z,10
2023-03-22T05:25:49.216Z,10
2023-03-22T05:27:48.903Z,10
2023-03-22T05:31:48.357Z,9.9
2023-03-22T05:33:51.370Z,9.8
2023-03-22T05:35:51.244Z,9.8
2023-03-22T05:37:50.719Z,9.9
2023-03-22T05:39:50.391Z,10
2023-03-22T05:41:50.114Z,10
2023-03-22T05:43:49.772Z,9.9
2023-03-22T05:45:49.451Z,10
2023-03-22T05:47:52.602Z,9.9
2023-03-22T05:49:52.199Z,9.9
2023-03-22T05:51:51.888Z,9.9
2023-03-22T05:53:51.585Z,9.8
2023-03-22T05:55:51.248Z,9.8
2023-03-22T05:57:50.908Z,9.8
2023-03-22T05:59:50.608Z,9.8
2023-03-22T06:01:53.739Z,9.8
2023-03-22T06:03:53.400Z,9.8
2023-03-22T06:05:53.055Z,9.8
2023-03-22T06:07:52.741Z,9.8
2023-03-22T06:09:52.427Z,9.7
2023-03-22T06:11:52.143Z,9.7
2023-03-22T06:13:51.790Z,9.7
2023-03-22T06:15:54.898Z,9.7
2023-03-22T06:17:54.566Z,9.7
2023-03-22T06:19:54.268Z,9.7
2023-03-22T06:22:16.143Z,9.7
2023-03-22T06:26:19.447Z,9.7
2023-03-22T06:36:17.287Z,9.8
2023-03-22T06:38:16.985Z,9.9
2023-03-22T06:40:16.666Z,10
2023-03-22T06:42:19.719Z,10.1
2023-03-22T06:46:19.153Z,10.1
2023-03-22T06:48:18.929Z,10.1
2023-03-22T06:50:18.519Z,10.2
2023-03-22T06:56:20.917Z,10.4
2023-03-22T06:58:20.574Z,10.4
2023-03-22T07:00:20.287Z,10.5
2023-03-22T07:02:19.972Z,10.5
2023-03-22T07:04:19.680Z,10.6
2023-03-22T07:06:19.326Z,10.7
2023-03-22T07:08:19.002Z,10.8
2023-03-22T07:10:22.107Z,11.4
2023-03-22T07:12:21.778Z,11.3
2023-03-22T07:14:21.421Z,11.3
2023-03-22T07:15:22.945Z,11.1
2023-03-22T07:17:22.632Z,11.1
2023-03-22T07:19:22.302Z,11.1
2023-03-22T07:21:21.937Z,11.1
2023-03-22T07:23:25.046Z,11.1
2023-03-22T07:25:24.688Z,11.1
2023-03-22T07:27:24.382Z,11
2023-03-22T07:29:24.049Z,11.2
2023-03-22T07:31:23.683Z,11.3
2023-03-22T07:33:23.372Z,11.4
2023-03-22T07:35:25.511Z,11.3
2023-03-22T07:39:25.753Z,11.1
2023-03-22T07:41:25.745Z,11
2023-03-22T07:43:25.049Z,11
2023-03-22T07:45:24.790Z,10.9
2023-03-22T07:47:39.497Z,10.9
2023-03-22T07:49:24.023Z,11
2023-03-22T07:51:27.048Z,11
2023-03-22T07:53:26.974Z,11
2023-03-22T07:55:26.362Z,11
2023-03-22T08:03:25.067Z,11
2023-03-22T08:05:28.009Z,11
2023-03-22T08:07:27.661Z,11
2023-03-22T08:09:27.325Z,11
2023-03-22T08:10:28.819Z,11
2023-03-22T08:12:28.509Z,11
2023-03-22T08:18:30.866Z,11.2
2023-03-22T08:20:30.533Z,11.3
2023-03-22T08:22:30.206Z,11.5
2023-03-22T08:24:29.817Z,11.6
2023-03-22T08:26:29.466Z,11.8
2023-03-22T08:28:29.158Z,11.7
2023-03-22T08:32:31.761Z,11.7
2023-03-22T08:34:31.540Z,11.8
2023-03-22T08:36:31.077Z,11.8
2023-03-22T08:38:30.724Z,11.8
2023-03-22T08:40:30.411Z,11.7
2023-03-22T08:48:32.316Z,11.7
2023-03-22T08:52:31.597Z,11.7
2023-03-22T08:54:31.238Z,11.8
2023-03-22T08:56:30.869Z,11.9
2023-03-22T08:58:30.492Z,11.8
2023-03-22T09:00:45.966Z,12
2023-03-22T09:02:33.372Z,12
2023-03-22T09:05:34.345Z,12.1
2023-03-22T09:07:33.954Z,12
2023-03-22T09:15:35.920Z,11.9
2023-03-22T09:17:35.581Z,12
2023-03-22T09:23:34.462Z,12.2
2023-03-22T09:25:34.105Z,12.3
2023-03-22T09:29:36.758Z,12.5
2023-03-22T09:31:36.467Z,12.5
2023-03-22T09:33:36.005Z,12.3
2023-03-22T09:35:35.648Z,12.2
2023-03-22T09:37:35.276Z,12.1
2023-03-22T09:39:34.918Z,12
2023-03-22T09:41:37.920Z,12
2023-03-22T09:43:37.529Z,12
2023-03-22T09:45:37.239Z,12
2023-03-22T09:47:44.437Z,12
2023-03-22T09:49:50.545Z,11.9
2023-03-22T10:03:59.288Z,11.9
2023-03-22T10:05:58.834Z,11.9
2023-03-22T10:10:01.524Z,11.8
2023-03-22T10:14:00.787Z,11.8
2023-03-22T10:16:00.449Z,11.8
2023-03-22T10:18:00.073Z,11.6
2023-03-22T10:19:59.691Z,11.4
2023-03-22T10:22:02.720Z,11.3
2023-03-22T10:24:03.920Z,11.3
2023-03-22T10:26:03.518Z,11.1
2023-03-22T10:28:03.153Z,11
2023-03-22T10:30:02.799Z,10.8
2023-03-22T10:44:03.707Z,11.1
2023-03-22T10:46:03.359Z,11.1
2023-03-22T10:48:03.070Z,11.1
2023-03-22T10:50:06.098Z,11
2023-03-22T10:52:05.731Z,11
2023-03-22T10:54:05.394Z,11.1
2023-03-22T10:55:06.932Z,10.9
2023-03-22T10:57:06.595Z,10.9
2023-03-22T10:59:06.263Z,10.8
2023-03-22T11:01:06.952Z,10.9
2023-03-22T11:03:09.039Z,10.9
2023-03-22T11:07:08.323Z,10.8
2023-03-22T11:09:07.999Z,10.8
2023-03-22T11:11:07.896Z,10.7
2023-03-22T11:15:07.003Z,10.8
2023-03-22T11:17:10.073Z,10.6
2023-03-22T11:19:09.814Z,10.6
2023-03-22T11:21:09.430Z,10.6
2023-03-22T11:29:08.099Z,10.4
2023-03-22T11:31:11.364Z,10.4
2023-03-22T11:33:10.882Z,10.4
2023-03-22T11:35:10.539Z,10.4
2023-03-22T11:37:10.232Z,10.4
2023-03-22T11:39:09.901Z,10.5
2023-03-22T11:41:09.733Z,10.5
2023-03-22T11:43:09.261Z,10.5
2023-03-22T11:45:12.350Z,10.6
2023-03-22T11:47:12.056Z,10.6
2023-03-22T11:49:11.746Z,10.6
2023-03-22T11:50:13.272Z,10.7
2023-03-22T11:52:12.918Z,10.7
2023-03-22T11:54:12.640Z,10.7
2023-03-22T11:56:12.307Z,10.8
2023-03-22T11:58:15.350Z,10.8
2023-03-22T12:00:15.124Z,10.8
2023-03-22T12:06:14.075Z,10.9
2023-03-22T12:12:16.480Z,10.9
2023-03-22T12:14:16.167Z,10.9
2023-03-22T12:26:17.571Z,11
2023-03-22T12:28:17.250Z,11.1
2023-03-22T12:30:16.938Z,11
2023-03-22T12:32:16.600Z,11
2023-03-22T12:34:16.285Z,11
2023-03-22T12:36:15.942Z,11
2023-03-22T12:38:15.598Z,11
2023-03-22T12:40:18.668Z,11
2023-03-22T12:42:18.315Z,11.1
2023-03-22T12:45:19.491Z,11.1
2023-03-22T12:47:19.187Z,11.1
2023-03-22T12:49:18.856Z,11.2
2023-03-22T12:51:18.524Z,11.2
2023-03-22T12:53:21.606Z,11.2
2023-03-22T12:55:21.240Z,11.2
2023-03-22T12:57:20.928Z,11.2
2023-03-22T13:01:20.335Z,11.2
2023-03-22T13:03:20.138Z,11.2
2023-03-22T13:05:19.563Z,11.2
2023-03-22T13:07:22.676Z,11.1
2023-03-22T13:09:22.279Z,11.2
2023-03-22T13:11:21.987Z,11.2
2023-03-22T13:13:21.621Z,11.2
2023-03-22T13:17:20.956Z,11.2
2023-03-22T13:33:22.598Z,11.2
2023-03-22T13:37:25.361Z,11.3
2023-03-22T13:39:25.000Z,11.3
2023-03-22T13:41:46.600Z,11.3
2023-03-22T13:43:46.056Z,11.3
2023-03-22T13:47:48.863Z,11.3
2023-03-22T13:49:48.349Z,11.2
2023-03-22T13:53:47.680Z,10.9
2023-03-22T13:55:47.341Z,10.9
2023-03-22T13:57:46.976Z,11
2023-03-22T13:59:47.901Z,11
2023-03-22T14:01:49.763Z,10.9
2023-03-22T14:03:49.412Z,10.8
2023-03-22T14:09:48.347Z,10.7
2023-03-22T14:13:47.691Z,10.9
2023-03-22T14:17:50.708Z,11
2023-03-22T14:19:50.036Z,10.9
2023-03-22T14:54:52.718Z,10.8
2023-03-22T14:56:55.796Z,10.8
2023-03-22T14:58:55.462Z,10.8
2023-03-22T15:02:54.799Z,10.9
2023-03-22T15:04:54.457Z,10.9
2023-03-22T15:08:53.747Z,10.9
2023-03-22T15:12:56.541Z,10.9
2023-03-22T15:14:56.164Z,10.8
2023-03-22T15:16:55.839Z,10.8
2023-03-22T15:22:54.854Z,11
2023-03-22T15:26:57.567Z,11
2023-03-22T15:28:57.274Z,10.9
2023-03-22T15:29:58.782Z,10.9
2023-03-22T15:35:57.830Z,10.9
2023-03-22T15:38:00.863Z,10.9
2023-03-22T15:40:00.541Z,10.8
2023-03-22T15:49:58.866Z,10.7
2023-03-22T15:52:01.960Z,10.6
2023-03-22T15:54:01.652Z,10.6
2023-03-22T15:56:01.297Z,10.6
2023-03-22T16:00:00.636Z,10.7
2023-03-22T16:14:03.288Z,10.6
2023-03-22T16:16:02.881Z,10.6
2023-03-22T16:18:02.550Z,10.7
2023-03-22T16:20:05.643Z,10.7
2023-03-22T16:22:05.291Z,10.7
2023-03-22T16:24:04.939Z,10.7
2023-03-22T16:25:06.522Z,10.7
2023-03-22T16:27:06.151Z,10.7
2023-03-22T16:33:08.563Z,10.5
2023-03-22T16:45:06.587Z,10.4
2023-03-22T16:47:10.187Z,10.4
2023-03-22T16:53:08.647Z,10.3
2023-03-22T16:55:10.090Z,10.3
2023-03-22T16:57:08.014Z,10.3
2023-03-22T17:01:10.807Z,10.3
2023-03-22T17:03:10.435Z,10.3
2023-03-22T17:05:10.175Z,10.3
2023-03-22T17:07:09.930Z,10.3
2023-03-22T17:09:09.415Z,10.3
2023-03-22T17:11:09.302Z,10.3
2023-03-22T17:13:08.741Z,10.3
2023-03-22T17:15:11.860Z,10.3
2023-03-22T17:17:11.743Z,10.3
2023-03-22T17:21:30.365Z,10.3
2023-03-22T17:23:30.024Z,10.3
2023-03-22T17:25:29.713Z,10.3
2023-03-22T17:31:32.183Z,10.3
2023-03-22T17:33:31.846Z,10.3
2023-03-22T17:35:31.536Z,10.3
2023-03-22T17:37:31.189Z,10.3
2023-03-22T17:40:11.562Z,10.3
2023-03-22T17:41:33.942Z,10.3
2023-03-22T17:43:33.638Z,10.3
2023-03-22T17:49:32.649Z,10.4
2023-03-22T18:03:34.471Z,10.5
2023-03-22T18:05:34.208Z,10.5
2023-03-22T18:13:36.618Z,10.4
2023-03-22T18:14:41.073Z,10.5
2023-03-22T18:18:37.075Z,10.4
2023-03-22T18:22:39.841Z,10.3
2023-03-22T18:32:56.616Z,10.3
2023-03-22T18:34:37.689Z,10.3
2023-03-22T18:36:40.762Z,10.3
2023-03-22T18:39:21.845Z,10.3
2023-03-22T18:41:20.081Z,10.3
2023-03-22T18:42:48.179Z,10.3
2023-03-22T18:46:38.998Z,10.3
2023-03-22T18:50:41.893Z,10.4
2023-03-22T18:53:07.720Z,10.4
2023-03-22T18:54:42.791Z,10.5
2023-03-22T18:56:41.921Z,10.5
2023-03-22T18:58:40.244Z,10.5
2023-03-22T19:00:39.953Z,10.4
2023-03-22T19:02:40.351Z,10.5
2023-03-22T19:09:43.417Z,10.5
2023-03-22T19:14:13.557Z,10.5
2023-03-22T19:15:51.809Z,10.6
2023-03-22T19:17:45.447Z,10.6
2023-03-22T19:19:45.105Z,10.6
2023-03-22T19:21:44.748Z,10.6
2023-03-22T19:23:44.392Z,10.6
2023-03-22T19:27:44.651Z,10.6
2023-03-22T19:31:47.133Z,10.6
2023-03-22T19:37:46.090Z,10.7
2023-03-22T19:49:47.372Z,10.7
2023-03-22T19:54:22.401Z,10.6
2023-03-22T19:55:46.337Z,10.7
2023-03-22T19:57:46.010Z,10.7
2023-03-22T20:01:48.720Z,10.6
2023-03-22T20:03:48.361Z,10.7
2023-03-22T20:04:49.867Z,10.6
2023-03-22T20:06:55.383Z,10.7
2023-03-22T20:12:51.885Z,10.6
2023-03-22T20:18:50.838Z,10.7
2023-03-22T20:20:50.496Z,10.7
2023-03-22T20:30:52.188Z,10.7
2023-03-22T20:32:51.870Z,10.7
2023-03-22T20:38:50.835Z,10.7
2023-03-22T20:42:53.618Z,10.7
2023-03-22T20:48:52.576Z,10.6
2023-03-22T20:50:52.245Z,10.6
2023-03-22T20:52:51.907Z,10.5
2023-03-22T20:54:54.926Z,10.5
2023-03-22T20:56:54.592Z,10.5
2023-03-22T20:58:54.245Z,10.5
2023-03-22T21:01:16.031Z,10.5
2023-03-22T21:03:15.751Z,10.5
2023-03-22T21:05:15.420Z,10.6
2023-03-22T21:07:18.501Z,10.6
2023-03-22T21:09:18.178Z,10.5
2023-03-22T21:11:17.808Z,10.5
2023-03-22T21:13:17.489Z,10.5
2023-03-22T21:15:17.159Z,10.6
2023-03-22T21:17:16.774Z,10.7
2023-03-22T21:19:16.932Z,10.7
2023-03-22T21:25:18.739Z,10.7
2023-03-22T21:31:17.759Z,10.7
2023-03-22T21:33:17.428Z,10.8
2023-03-22T21:35:20.478Z,10.8
2023-03-22T21:37:20.149Z,10.8
2023-03-22T21:39:19.799Z,10.8
2023-03-22T21:41:19.456Z,10.8
2023-03-22T21:43:19.132Z,10.9
2023-03-22T21:45:18.794Z,10.9
2023-03-22T21:47:18.483Z,10.9
2023-03-22T21:49:21.518Z,10.9
2023-03-22T21:51:21.160Z,10.9
2023-03-22T21:53:20.807Z,10.9
2023-03-22T21:54:23.915Z,10.9
2023-03-22T21:58:23.163Z,10.9
2023-03-22T22:00:22.835Z,11
2023-03-22T22:06:25.249Z,11
2023-03-22T22:16:26.980Z,11.1
2023-03-22T22:18:26.525Z,11
2023-03-22T22:20:26.185Z,11.2
2023-03-22T22:22:25.836Z,11.1
2023-03-22T22:24:25.514Z,11.1
2023-03-22T22:26:25.169Z,11.2
2023-03-22T22:28:24.825Z,11.2
2023-03-22T22:30:27.897Z,11.2
2023-03-22T22:32:27.526Z,11.2
2023-03-22T22:34:27.179Z,11.2
2023-03-22T22:36:26.832Z,11.3
2023-03-22T22:38:26.494Z,11.3
2023-03-22T22:40:26.162Z,11.2
2023-03-22T22:42:25.782Z,11.2
2023-03-22T22:44:28.836Z,11.2
2023-03-22T22:46:28.491Z,11.2
2023-03-22T22:48:28.163Z,11.2
2023-03-22T22:51:29.309Z,11.2
2023-03-22T22:53:28.952Z,11.2
2023-03-22T22:59:31.312Z,11.2
2023-03-22T23:01:30.929Z,11.2
2023-03-22T23:03:30.570Z,11.2
2023-03-22T23:07:29.854Z,11.2
2023-03-22T23:13:32.172Z,11.3
2023-03-22T23:15:31.841Z,11.3
2023-03-22T23:19:31.111Z,11.3
2023-03-22T23:21:30.746Z,11.3
2023-03-22T23:23:30.382Z,11.3
2023-03-22T23:35:31.699Z,11.3
2023-03-22T23:39:34.335Z,11.3
2023-03-22T23:41:33.968Z,11.3
2023-03-22T23:43:33.627Z,11.4
2023-03-22T23:44:35.147Z,11.3
2023-03-22T23:58:36.070Z,11.3
